sensor_id;sensor_type;location;lat;lon;timestamp;pressure;altitude;pressure_sealevel;temperature;humidity
39491;BME280;25175;50.140;18.990;2022-11-11T00:01:35;99933.84;;;6.83;70.27
39491;BME280;25175;50.140;18.990;2022-11-11T00:04:57;99934.16;;;6.80;70.04
39491;BME280;25175;50.140;18.990;2022-11-11T00:08:17;99939.34;;;6.80;70.03
39491;BME280;25175;50.140;18.990;2022-11-11T00:11:38;99943.88;;;6.78;69.88
39491;BME280;25175;50.140;18.990;2022-11-11T00:14:59;99948.28;;;6.77;70.34
39491;BME280;25175;50.140;18.990;2022-11-11T00:18:20;99953.47;;;6.77;70.45
39491;BME280;25175;50.140;18.990;2022-11-11T00:22:00;99946.75;;;6.84;70.53
39491;BME280;25175;50.140;18.990;2022-11-11T00:25:38;99964.00;;;6.85;70.32
39491;BME280;25175;50.140;18.990;2022-11-11T00:28:58;99966.06;;;6.82;70.63
39491;BME280;25175;50.140;18.990;2022-11-11T00:32:19;99978.44;;;6.80;70.49
39491;BME280;25175;50.140;18.990;2022-11-11T00:35:45;99970.88;;;6.77;70.61
39491;BME280;25175;50.140;18.990;2022-11-11T00:39:17;99978.56;;;6.78;70.77
39491;BME280;25175;50.140;18.990;2022-11-11T00:42:37;99983.63;;;6.80;70.83
39491;BME280;25175;50.140;18.990;2022-11-11T00:45:59;99978.03;;;6.75;71.00
39491;BME280;25175;50.140;18.990;2022-11-11T00:49:33;99969.25;;;6.76;71.38
39491;BME280;25175;50.140;18.990;2022-11-11T00:53:13;99965.69;;;6.77;71.00
39491;BME280;25175;50.140;18.990;2022-11-11T00:56:35;99968.16;;;6.78;71.75
39491;BME280;25175;50.140;18.990;2022-11-11T00:59:56;99967.16;;;6.79;71.93
39491;BME280;25175;50.140;18.990;2022-11-11T01:03:17;99966.22;;;6.80;72.03
39491;BME280;25175;50.140;18.990;2022-11-11T01:06:38;99968.97;;;6.79;71.63
39491;BME280;25175;50.140;18.990;2022-11-11T01:09:59;99966.63;;;6.76;71.83
39491;BME280;25175;50.140;18.990;2022-11-11T01:13:22;99960.91;;;6.72;72.02
39491;BME280;25175;50.140;18.990;2022-11-11T01:16:42;99957.47;;;6.72;72.89
39491;BME280;25175;50.140;18.990;2022-11-11T01:20:04;99952.66;;;6.77;72.47
39491;BME280;25175;50.140;18.990;2022-11-11T01:23:25;99948.94;;;6.79;72.59
39491;BME280;25175;50.140;18.990;2022-11-11T01:26:45;99948.81;;;6.81;72.75
39491;BME280;25175;50.140;18.990;2022-11-11T01:30:08;99944.69;;;6.78;73.11
39491;BME280;25175;50.140;18.990;2022-11-11T01:33:32;99937.72;;;6.79;73.07
39491;BME280;25175;50.140;18.990;2022-11-11T01:36:53;99939.34;;;6.80;73.04
39491;BME280;25175;50.140;18.990;2022-11-11T01:40:14;99934.28;;;6.78;73.59
39491;BME280;25175;50.140;18.990;2022-11-11T01:43:34;99953.03;;;6.82;73.77
39491;BME280;25175;50.140;18.990;2022-11-11T01:46:57;99951.69;;;6.87;73.65
39491;BME280;25175;50.140;18.990;2022-11-11T01:50:19;99956.72;;;6.89;73.38
39491;BME280;25175;50.140;18.990;2022-11-11T01:53:38;99950.56;;;6.90;73.48
39491;BME280;25175;50.140;18.990;2022-11-11T01:57:02;99946.16;;;6.90;73.78
39491;BME280;25175;50.140;18.990;2022-11-11T02:00:25;99950.56;;;6.90;73.73
39491;BME280;25175;50.140;18.990;2022-11-11T02:03:49;99946.88;;;6.83;73.56
39491;BME280;25175;50.140;18.990;2022-11-11T02:07:25;99938.66;;;6.78;74.03
39491;BME280;25175;50.140;18.990;2022-11-11T02:10:46;99948.41;;;6.76;73.81
39491;BME280;25175;50.140;18.990;2022-11-11T02:14:07;99960.31;;;6.78;74.31
39491;BME280;25175;50.140;18.990;2022-11-11T02:17:46;99958.97;;;6.84;74.30
39491;BME280;25175;50.140;18.990;2022-11-11T02:21:13;99962.09;;;6.87;73.79
39491;BME280;25175;50.140;18.990;2022-11-11T02:24:37;99958.66;;;6.87;73.67
39491;BME280;25175;50.140;18.990;2022-11-11T02:28:00;99967.72;;;6.92;74.08
39491;BME280;25175;50.140;18.990;2022-11-11T02:31:26;99968.91;;;6.98;73.98
39491;BME280;25175;50.140;18.990;2022-11-11T02:34:46;99973.84;;;7.01;73.53
39491;BME280;25175;50.140;18.990;2022-11-11T02:38:07;99975.88;;;7.07;73.64
39491;BME280;25175;50.140;18.990;2022-11-11T02:41:30;99963.50;;;7.09;73.37
39491;BME280;25175;50.140;18.990;2022-11-11T02:45:20;99976.53;;;7.09;73.26
39491;BME280;25175;50.140;18.990;2022-11-11T02:48:41;99978.63;;;7.05;73.56
39491;BME280;25175;50.140;18.990;2022-11-11T02:52:02;99978.88;;;7.02;73.97
39491;BME280;25175;50.140;18.990;2022-11-11T02:55:22;99978.47;;;7.07;73.98
39491;BME280;25175;50.140;18.990;2022-11-11T02:58:44;99987.50;;;7.12;73.88
39491;BME280;25175;50.140;18.990;2022-11-11T03:02:06;99988.19;;;7.14;73.77
39491;BME280;25175;50.140;18.990;2022-11-11T03:05:26;99980.38;;;7.14;73.63
39491;BME280;25175;50.140;18.990;2022-11-11T03:08:47;99982.69;;;7.17;73.35
39491;BME280;25175;50.140;18.990;2022-11-11T03:12:07;99973.09;;;7.18;73.63
39491;BME280;25175;50.140;18.990;2022-11-11T03:15:29;99978.56;;;7.15;73.24
39491;BME280;25175;50.140;18.990;2022-11-11T03:18:50;99978.44;;;7.16;73.53
39491;BME280;25175;50.140;18.990;2022-11-11T03:22:10;99974.34;;;7.14;73.05
39491;BME280;25175;50.140;18.990;2022-11-11T03:25:30;99984.09;;;7.12;73.43
39491;BME280;25175;50.140;18.990;2022-11-11T03:29:00;99971.19;;;7.10;73.37
39491;BME280;25175;50.140;18.990;2022-11-11T03:32:22;99969.38;;;7.11;73.11
39491;BME280;25175;50.140;18.990;2022-11-11T03:35:42;99973.94;;;7.09;72.99
39491;BME280;25175;50.140;18.990;2022-11-11T03:39:04;99979.59;;;7.04;72.96
39491;BME280;25175;50.140;18.990;2022-11-11T03:42:23;99974.50;;;7.03;73.34
39491;BME280;25175;50.140;18.990;2022-11-11T03:45:44;99974.22;;;7.06;72.75
39491;BME280;25175;50.140;18.990;2022-11-11T03:49:07;99970.66;;;7.07;72.41
39491;BME280;25175;50.140;18.990;2022-11-11T03:52:27;99967.66;;;7.02;72.28
39491;BME280;25175;50.140;18.990;2022-11-11T03:55:48;99972.63;;;6.95;72.38
39491;BME280;25175;50.140;18.990;2022-11-11T03:59:09;99970.72;;;6.88;72.67
39491;BME280;25175;50.140;18.990;2022-11-11T04:02:30;99972.91;;;6.83;72.53
39491;BME280;25175;50.140;18.990;2022-11-11T04:06:10;99947.75;;;6.74;72.78
39491;BME280;25175;50.140;18.990;2022-11-11T04:09:48;99959.13;;;6.73;72.64
39491;BME280;25175;50.140;18.990;2022-11-11T04:13:27;99954.19;;;6.70;73.01
39491;BME280;25175;50.140;18.990;2022-11-11T04:17:05;99951.72;;;6.68;72.46
39491;BME280;25175;50.140;18.990;2022-11-11T04:20:25;99954.19;;;6.70;72.76
39491;BME280;25175;50.140;18.990;2022-11-11T04:24:05;99959.94;;;6.73;72.37
39491;BME280;25175;50.140;18.990;2022-11-11T04:27:40;99955.81;;;6.71;72.09
39491;BME280;25175;50.140;18.990;2022-11-11T04:31:01;99956.66;;;6.71;71.90
39491;BME280;25175;50.140;18.990;2022-11-11T04:34:20;99972.16;;;6.73;72.22
39491;BME280;25175;50.140;18.990;2022-11-11T04:37:45;99961.44;;;6.76;71.66
39491;BME280;25175;50.140;18.990;2022-11-11T04:41:09;99970.09;;;6.76;71.76
39491;BME280;25175;50.140;18.990;2022-11-11T04:44:31;99965.41;;;6.80;71.68
39491;BME280;25175;50.140;18.990;2022-11-11T04:48:09;99975.38;;;6.84;71.09
39491;BME280;25175;50.140;18.990;2022-11-11T04:51:31;99992.13;;;6.82;70.91
39491;BME280;25175;50.140;18.990;2022-11-11T04:55:06;99994.06;;;6.80;70.96
39491;BME280;25175;50.140;18.990;2022-11-11T04:58:46;99987.78;;;6.73;70.41
39491;BME280;25175;50.140;18.990;2022-11-11T05:02:26;99998.59;;;6.68;70.99
39491;BME280;25175;50.140;18.990;2022-11-11T05:06:04;100006.28;;;6.70;70.90
39491;BME280;25175;50.140;18.990;2022-11-11T05:09:42;99995.84;;;6.70;70.54
39491;BME280;25175;50.140;18.990;2022-11-11T05:13:03;100004.34;;;6.72;70.88
39491;BME280;25175;50.140;18.990;2022-11-11T05:16:45;100001.47;;;6.75;70.68
39491;BME280;25175;50.140;18.990;2022-11-11T05:20:23;100012.56;;;6.77;70.86
39491;BME280;25175;50.140;18.990;2022-11-11T05:24:02;100020.78;;;6.82;70.33
39491;BME280;25175;50.140;18.990;2022-11-11T05:27:40;100024.22;;;6.82;69.91
39491;BME280;25175;50.140;18.990;2022-11-11T05:31:00;100023.25;;;6.83;69.60
39491;BME280;25175;50.140;18.990;2022-11-11T05:34:22;100025.97;;;6.82;69.33
39491;BME280;25175;50.140;18.990;2022-11-11T05:37:43;100016.78;;;6.78;69.39
39491;BME280;25175;50.140;18.990;2022-11-11T05:41:23;100035.19;;;6.76;69.22
39491;BME280;25175;50.140;18.990;2022-11-11T05:44:44;100043.28;;;6.73;69.55
39491;BME280;25175;50.140;18.990;2022-11-11T05:48:04;100054.13;;;6.69;69.44
39491;BME280;25175;50.140;18.990;2022-11-11T05:51:26;100064.00;;;6.65;69.55
39491;BME280;25175;50.140;18.990;2022-11-11T05:54:49;100055.44;;;6.63;69.22
39491;BME280;25175;50.140;18.990;2022-11-11T05:58:10;100050.66;;;6.59;69.25
39491;BME280;25175;50.140;18.990;2022-11-11T06:01:30;100040.50;;;6.56;69.49
39491;BME280;25175;50.140;18.990;2022-11-11T06:04:51;100059.44;;;6.58;70.05
39491;BME280;25175;50.140;18.990;2022-11-11T06:08:14;100054.09;;;6.59;70.01
39491;BME280;25175;50.140;18.990;2022-11-11T06:11:35;100046.81;;;6.63;70.19
39491;BME280;25175;50.140;18.990;2022-11-11T06:14:55;100059.84;;;6.63;69.61
39491;BME280;25175;50.140;18.990;2022-11-11T06:18:15;100064.34;;;6.61;69.62
39491;BME280;25175;50.140;18.990;2022-11-11T06:21:36;100067.25;;;6.58;69.87
39491;BME280;25175;50.140;18.990;2022-11-11T06:25:12;100076.56;;;6.51;70.00
39491;BME280;25175;50.140;18.990;2022-11-11T06:28:51;100051.47;;;6.50;70.58
39491;BME280;25175;50.140;18.990;2022-11-11T06:32:12;100055.75;;;6.51;70.80
39491;BME280;25175;50.140;18.990;2022-11-11T06:35:33;100047.78;;;6.52;70.28
39491;BME280;25175;50.140;18.990;2022-11-11T06:38:55;100049.41;;;6.53;71.02
39491;BME280;25175;50.140;18.990;2022-11-11T06:42:17;100049.16;;;6.56;70.84
39491;BME280;25175;50.140;18.990;2022-11-11T06:45:37;100041.06;;;6.59;71.02
39491;BME280;25175;50.140;18.990;2022-11-11T06:48:57;100051.09;;;6.64;70.79
39491;BME280;25175;50.140;18.990;2022-11-11T06:52:18;100051.91;;;6.64;70.65
39491;BME280;25175;50.140;18.990;2022-11-11T06:55:39;100052.75;;;6.65;70.61
39491;BME280;25175;50.140;18.990;2022-11-11T06:59:01;100050.69;;;6.68;70.71
39491;BME280;25175;50.140;18.990;2022-11-11T07:02:21;100052.19;;;6.71;70.68
39491;BME280;25175;50.140;18.990;2022-11-11T07:05:42;100052.19;;;6.71;70.84
39491;BME280;25175;50.140;18.990;2022-11-11T07:09:03;100054.66;;;6.72;70.86
39491;BME280;25175;50.140;18.990;2022-11-11T07:12:24;100063.44;;;6.71;71.12
39491;BME280;25175;50.140;18.990;2022-11-11T07:15:46;100057.13;;;6.74;71.23
39491;BME280;25175;50.140;18.990;2022-11-11T07:19:06;100051.63;;;6.77;70.72
39491;BME280;25175;50.140;18.990;2022-11-11T07:22:26;100053.97;;;6.80;70.93
39491;BME280;25175;50.140;18.990;2022-11-11T07:25:47;100053.66;;;6.83;71.01
39491;BME280;25175;50.140;18.990;2022-11-11T07:29:07;100062.84;;;6.87;71.09
39491;BME280;25175;50.140;18.990;2022-11-11T07:32:30;100063.13;;;6.93;71.35
39491;BME280;25175;50.140;18.990;2022-11-11T07:35:50;100059.25;;;6.97;71.31
39491;BME280;25175;50.140;18.990;2022-11-11T07:39:11;100055.97;;;7.05;71.20
39491;BME280;25175;50.140;18.990;2022-11-11T07:42:34;100056.22;;;7.11;71.25
39491;BME280;25175;50.140;18.990;2022-11-11T07:45:55;100052.22;;;7.17;71.32
39491;BME280;25175;50.140;18.990;2022-11-11T07:49:17;100039.88;;;7.19;71.25
39491;BME280;25175;50.140;18.990;2022-11-11T07:52:37;100046.03;;;7.27;71.38
39491;BME280;25175;50.140;18.990;2022-11-11T07:55:58;100033.09;;;7.35;71.35
39491;BME280;25175;50.140;18.990;2022-11-11T07:59:19;100032.94;;;7.37;71.17
39491;BME280;25175;50.140;18.990;2022-11-11T08:02:39;100031.41;;;7.44;71.25
39491;BME280;25175;50.140;18.990;2022-11-11T08:06:02;100039.88;;;7.55;71.33
39491;BME280;25175;50.140;18.990;2022-11-11T08:09:23;100034.31;;;7.68;71.42
39491;BME280;25175;50.140;18.990;2022-11-11T08:12:43;100033.16;;;7.80;71.40
39491;BME280;25175;50.140;18.990;2022-11-11T08:16:22;100020.19;;;7.88;70.52
39491;BME280;25175;50.140;18.990;2022-11-11T08:19:42;100026.63;;;7.93;70.41
39491;BME280;25175;50.140;18.990;2022-11-11T08:23:04;100019.31;;;7.97;70.55
39491;BME280;25175;50.140;18.990;2022-11-11T08:26:28;100025.97;;;8.09;70.57
39491;BME280;25175;50.140;18.990;2022-11-11T08:29:48;100021.25;;;8.22;71.00
39491;BME280;25175;50.140;18.990;2022-11-11T08:33:08;100017.28;;;8.35;70.66
39491;BME280;25175;50.140;18.990;2022-11-11T08:36:29;100011.50;;;8.49;70.41
39491;BME280;25175;50.140;18.990;2022-11-11T08:39:51;100025.19;;;8.61;70.37
39491;BME280;25175;50.140;18.990;2022-11-11T08:43:12;100024.56;;;8.67;70.18
39491;BME280;25175;50.140;18.990;2022-11-11T08:46:33;100013.19;;;8.76;70.22
39491;BME280;25175;50.140;18.990;2022-11-11T08:49:53;100034.00;;;8.85;69.78
39491;BME280;25175;50.140;18.990;2022-11-11T08:53:13;100040.47;;;8.99;70.42
39491;BME280;25175;50.140;18.990;2022-11-11T08:56:35;100037.06;;;9.06;69.07
39491;BME280;25175;50.140;18.990;2022-11-11T08:59:56;100041.53;;;9.14;69.68
39491;BME280;25175;50.140;18.990;2022-11-11T09:03:17;100035.06;;;9.26;69.81
39491;BME280;25175;50.140;18.990;2022-11-11T09:06:37;100046.41;;;9.34;68.99
39491;BME280;25175;50.140;18.990;2022-11-11T09:09:59;100037.97;;;9.48;68.72
39491;BME280;25175;50.140;18.990;2022-11-11T09:13:21;100035.25;;;9.58;69.20
39491;BME280;25175;50.140;18.990;2022-11-11T09:16:42;100034.00;;;9.70;68.92
39491;BME280;25175;50.140;18.990;2022-11-11T09:20:02;100050.53;;;9.78;68.17
39491;BME280;25175;50.140;18.990;2022-11-11T09:23:23;100052.03;;;9.81;67.69
39491;BME280;25175;50.140;18.990;2022-11-11T09:26:46;100054.00;;;9.79;66.92
39491;BME280;25175;50.140;18.990;2022-11-11T09:30:09;100052.84;;;9.81;67.48
39491;BME280;25175;50.140;18.990;2022-11-11T09:33:29;100051.06;;;9.82;66.85
39491;BME280;25175;50.140;18.990;2022-11-11T09:36:50;100046.28;;;9.77;67.01
39491;BME280;25175;50.140;18.990;2022-11-11T09:40:15;100050.53;;;9.78;66.86
39491;BME280;25175;50.140;18.990;2022-11-11T09:43:44;100039.28;;;9.78;67.66
39491;BME280;25175;50.140;18.990;2022-11-11T09:47:15;100043.22;;;9.82;66.92
39491;BME280;25175;50.140;18.990;2022-11-11T09:50:40;100053.00;;;9.80;67.38
39491;BME280;25175;50.140;18.990;2022-11-11T09:54:05;100052.03;;;9.81;67.12
39491;BME280;25175;50.140;18.990;2022-11-11T09:57:34;100058.22;;;9.72;66.00
39491;BME280;25175;50.140;18.990;2022-11-11T10:01:00;100049.88;;;9.68;66.97
39491;BME280;25175;50.140;18.990;2022-11-11T10:04:29;100042.66;;;9.62;66.82
39491;BME280;25175;50.140;18.990;2022-11-11T10:07:54;100047.22;;;9.60;66.60
39491;BME280;25175;50.140;18.990;2022-11-11T10:11:21;100054.28;;;9.68;67.00
39491;BME280;25175;50.140;18.990;2022-11-11T10:14:46;100053.34;;;9.77;67.82
39491;BME280;25175;50.140;18.990;2022-11-11T10:18:19;100053.00;;;9.80;67.31
39491;BME280;25175;50.140;18.990;2022-11-11T10:21:49;100054.34;;;9.84;66.53
39491;BME280;25175;50.140;18.990;2022-11-11T10:25:19;100056.97;;;9.92;66.30
39491;BME280;25175;50.140;18.990;2022-11-11T10:28:42;100059.81;;;10.06;66.91
39491;BME280;25175;50.140;18.990;2022-11-11T10:32:09;100057.19;;;10.14;66.54
39491;BME280;25175;50.140;18.990;2022-11-11T10:35:31;100059.53;;;10.25;66.27
39491;BME280;25175;50.140;18.990;2022-11-11T10:38:57;100053.13;;;10.28;65.58
39491;BME280;25175;50.140;18.990;2022-11-11T10:42:19;100033.16;;;10.27;65.06
39491;BME280;25175;50.140;18.990;2022-11-11T10:45:43;100045.97;;;10.38;66.06
39491;BME280;25175;50.140;18.990;2022-11-11T10:49:09;100028.28;;;10.48;65.06
39491;BME280;25175;50.140;18.990;2022-11-11T10:52:34;100036.97;;;10.56;65.22
39491;BME280;25175;50.140;18.990;2022-11-11T10:56:02;100035.47;;;10.62;65.52
39491;BME280;25175;50.140;18.990;2022-11-11T10:59:27;100028.59;;;10.77;65.84
39491;BME280;25175;50.140;18.990;2022-11-11T11:02:56;100023.50;;;10.99;65.22
39491;BME280;25175;50.140;18.990;2022-11-11T11:06:22;100022.00;;;11.21;65.29
39491;BME280;25175;50.140;18.990;2022-11-11T11:09:47;100019.66;;;11.34;63.54
39491;BME280;25175;50.140;18.990;2022-11-11T11:13:14;100020.44;;;11.42;63.52
39491;BME280;25175;50.140;18.990;2022-11-11T11:16:37;100021.59;;;11.48;62.64
39491;BME280;25175;50.140;18.990;2022-11-11T11:20:11;100013.03;;;11.46;62.25
39491;BME280;25175;50.140;18.990;2022-11-11T11:23:36;100006.84;;;11.47;63.10
39491;BME280;25175;50.140;18.990;2022-11-11T11:26:58;100017.44;;;11.61;62.70
39491;BME280;25175;50.140;18.990;2022-11-11T11:30:23;100015.28;;;11.65;62.07
39491;BME280;25175;50.140;18.990;2022-11-11T11:33:51;100031.50;;;11.68;61.89
39491;BME280;25175;50.140;18.990;2022-11-11T11:37:12;100026.72;;;11.72;61.89
39491;BME280;25175;50.140;18.990;2022-11-11T11:40:47;100024.09;;;11.72;61.71
39491;BME280;25175;50.140;18.990;2022-11-11T11:44:26;100030.66;;;11.76;61.74
39491;BME280;25175;50.140;18.990;2022-11-11T11:48:02;100024.56;;;11.83;62.04
39491;BME280;25175;50.140;18.990;2022-11-11T11:51:32;100010.22;;;11.94;62.04
39491;BME280;25175;50.140;18.990;2022-11-11T11:54:58;100012.00;;;12.01;61.79
39491;BME280;25175;50.140;18.990;2022-11-11T11:58:23;100008.84;;;12.06;61.34
39491;BME280;25175;50.140;18.990;2022-11-11T12:01:52;100002.78;;;12.05;61.40
39491;BME280;25175;50.140;18.990;2022-11-11T12:05:22;100014.78;;;12.00;61.21
39491;BME280;25175;50.140;18.990;2022-11-11T12:08:54;100009.66;;;12.06;60.99
39491;BME280;25175;50.140;18.990;2022-11-11T12:12:26;100008.75;;;11.99;61.16
39491;BME280;25175;50.140;18.990;2022-11-11T12:15:52;100003.78;;;12.04;61.55
39491;BME280;25175;50.140;18.990;2022-11-11T12:19:32;100005.59;;;12.04;61.06
39491;BME280;25175;50.140;18.990;2022-11-11T12:23:14;99989.88;;;11.96;60.52
39491;BME280;25175;50.140;18.990;2022-11-11T12:26:43;99990.72;;;11.88;60.13
39491;BME280;25175;50.140;18.990;2022-11-11T12:30:09;99999.09;;;11.84;60.17
39491;BME280;25175;50.140;18.990;2022-11-11T12:33:55;99988.94;;;11.81;60.69
39491;BME280;25175;50.140;18.990;2022-11-11T12:37:25;99985.31;;;11.82;61.13
39491;BME280;25175;50.140;18.990;2022-11-11T12:40:57;99978.78;;;11.78;60.76
39491;BME280;25175;50.140;18.990;2022-11-11T12:44:28;99988.97;;;11.73;60.60
39491;BME280;25175;50.140;18.990;2022-11-11T12:47:57;99980.47;;;11.71;60.75
39491;BME280;25175;50.140;18.990;2022-11-11T12:51:34;99982.94;;;11.72;61.00
39491;BME280;25175;50.140;18.990;2022-11-11T12:55:06;99975.84;;;11.73;61.10
39491;BME280;25175;50.140;18.990;2022-11-11T12:58:38;99990.34;;;11.69;60.69
39491;BME280;25175;50.140;18.990;2022-11-11T13:02:14;99996.91;;;11.65;61.34
39491;BME280;25175;50.140;18.990;2022-11-11T13:05:44;99992.13;;;11.68;61.17
39491;BME280;25175;50.140;18.990;2022-11-11T13:09:22;99982.84;;;11.58;60.50
39491;BME280;25175;50.140;18.990;2022-11-11T13:12:53;99982.06;;;11.49;61.16
39491;BME280;25175;50.140;18.990;2022-11-11T13:16:21;99972.53;;;11.48;61.15
39491;BME280;25175;50.140;18.990;2022-11-11T13:19:44;99973.22;;;11.42;61.62
39491;BME280;25175;50.140;18.990;2022-11-11T13:23:07;99978.81;;;11.39;61.40
39491;BME280;25175;50.140;18.990;2022-11-11T13:26:34;99962.94;;;11.33;61.64
39491;BME280;25175;50.140;18.990;2022-11-11T13:30:06;99977.03;;;11.32;62.00
39491;BME280;25175;50.140;18.990;2022-11-11T13:33:38;99964.91;;;11.31;62.28
39491;BME280;25175;50.140;18.990;2022-11-11T13:37:02;99966.38;;;11.25;62.15
39491;BME280;25175;50.140;18.990;2022-11-11T13:40:35;99972.94;;;11.21;62.19
39491;BME280;25175;50.140;18.990;2022-11-11T13:43:58;99982.28;;;11.24;62.60
39491;BME280;25175;50.140;18.990;2022-11-11T13:47:22;99971.16;;;11.22;62.52
39491;BME280;25175;50.140;18.990;2022-11-11T13:50:45;99973.09;;;11.28;62.32
39491;BME280;25175;50.140;18.990;2022-11-11T13:54:20;99976.09;;;11.25;62.54
39491;BME280;25175;50.140;18.990;2022-11-11T13:57:47;99970.84;;;11.25;62.92
39491;BME280;25175;50.140;18.990;2022-11-11T14:01:10;99977.03;;;11.24;62.80
39491;BME280;25175;50.140;18.990;2022-11-11T14:08:53;99975.78;;;11.20;63.03
39491;BME280;25175;50.140;18.990;2022-11-11T14:15:56;99973.00;;;11.13;62.58
39491;BME280;25175;50.140;18.990;2022-11-11T14:19:30;99970.69;;;11.10;62.81
39491;BME280;25175;50.140;18.990;2022-11-11T14:22:51;99967.44;;;11.08;62.98
39491;BME280;25175;50.140;18.990;2022-11-11T14:26:23;99965.31;;;11.04;62.91
39491;BME280;25175;50.140;18.990;2022-11-11T14:29:51;99970.91;;;11.01;63.28
39491;BME280;25175;50.140;18.990;2022-11-11T14:33:20;99964.53;;;10.95;62.99
39491;BME280;25175;50.140;18.990;2022-11-11T14:36:47;99970.94;;;10.93;63.00
39491;BME280;25175;50.140;18.990;2022-11-11T14:40:09;99962.38;;;10.91;63.74
39491;BME280;25175;50.140;18.990;2022-11-11T14:43:37;99979.47;;;10.87;63.28
39491;BME280;25175;50.140;18.990;2022-11-11T14:50:42;99976.16;;;10.69;64.08
39491;BME280;25175;50.140;18.990;2022-11-11T14:54:05;99977.50;;;10.65;63.79
39491;BME280;25175;50.140;18.990;2022-11-11T14:57:29;99973.72;;;10.59;64.14
39491;BME280;25175;50.140;18.990;2022-11-11T15:00:57;99976.22;;;10.53;64.37
39491;BME280;25175;50.140;18.990;2022-11-11T15:04:19;99969.50;;;10.50;64.13
39491;BME280;25175;50.140;18.990;2022-11-11T15:07:52;99968.97;;;10.47;63.99
39491;BME280;25175;50.140;18.990;2022-11-11T15:11:26;99963.59;;;10.40;64.24
39491;BME280;25175;50.140;18.990;2022-11-11T15:14:54;99971.63;;;10.39;64.85
39491;BME280;25175;50.140;18.990;2022-11-11T15:18:40;99964.25;;;10.34;64.57
39491;BME280;25175;50.140;18.990;2022-11-11T15:22:14;99971.63;;;10.31;65.04
39491;BME280;25175;50.140;18.990;2022-11-11T15:25:46;99978.81;;;10.29;65.49
39491;BME280;25175;50.140;18.990;2022-11-11T15:29:22;99979.94;;;10.26;65.24
39491;BME280;25175;50.140;18.990;2022-11-11T15:33:08;99987.66;;;10.20;65.50
39491;BME280;25175;50.140;18.990;2022-11-11T15:36:49;99981.41;;;10.13;65.52
39491;BME280;25175;50.140;18.990;2022-11-11T15:40:17;99987.78;;;10.10;66.01
39491;BME280;25175;50.140;18.990;2022-11-11T15:43:38;99981.91;;;10.08;65.85
39491;BME280;25175;50.140;18.990;2022-11-11T15:46:59;99978.47;;;10.08;66.00
39491;BME280;25175;50.140;18.990;2022-11-11T15:50:30;99981.06;;;10.00;66.11
39491;BME280;25175;50.140;18.990;2022-11-11T15:54:08;99989.91;;;10.07;65.78
39491;BME280;25175;50.140;18.990;2022-11-11T15:57:30;99989.28;;;10.05;65.59
39491;BME280;25175;50.140;18.990;2022-11-11T16:00:51;99985.97;;;10.03;66.22
39491;BME280;25175;50.140;18.990;2022-11-11T16:04:16;99991.56;;;10.00;65.75
39491;BME280;25175;50.140;18.990;2022-11-11T16:07:43;99977.47;;;9.93;66.32
39491;BME280;25175;50.140;18.990;2022-11-11T16:11:05;99989.72;;;9.92;66.56
39491;BME280;25175;50.140;18.990;2022-11-11T16:14:29;99991.22;;;9.95;66.74
39491;BME280;25175;50.140;18.990;2022-11-11T16:17:53;99994.00;;;10.01;66.20
39491;BME280;25175;50.140;18.990;2022-11-11T16:21:16;99992.19;;;9.94;65.73
39491;BME280;25175;50.140;18.990;2022-11-11T16:24:39;99994.31;;;9.90;66.26
39491;BME280;25175;50.140;18.990;2022-11-11T16:28:03;99987.41;;;9.81;67.32
39491;BME280;25175;50.140;18.990;2022-11-11T16:31:36;100000.16;;;9.76;66.77
39491;BME280;25175;50.140;18.990;2022-11-11T16:34:57;99993.44;;;9.74;66.78
39491;BME280;25175;50.140;18.990;2022-11-11T16:38:30;99984.94;;;9.72;67.05
39491;BME280;25175;50.140;18.990;2022-11-11T16:41:52;99988.69;;;9.69;66.97
39491;BME280;25175;50.140;18.990;2022-11-11T16:45:20;99987.06;;;9.68;67.13
39491;BME280;25175;50.140;18.990;2022-11-11T16:48:47;99982.28;;;9.64;67.70
39491;BME280;25175;50.140;18.990;2022-11-11T16:52:11;99988.84;;;9.60;67.56
39491;BME280;25175;50.140;18.990;2022-11-11T16:55:35;99985.69;;;9.56;67.72
39491;BME280;25175;50.140;18.990;2022-11-11T16:59:02;99979.78;;;9.54;67.56
39491;BME280;25175;50.140;18.990;2022-11-11T17:02:26;99995.47;;;9.54;67.72
39491;BME280;25175;50.140;18.990;2022-11-11T17:05:51;99995.47;;;9.54;67.81
39491;BME280;25175;50.140;18.990;2022-11-11T17:09:30;99997.97;;;9.56;67.80
39491;BME280;25175;50.140;18.990;2022-11-11T17:12:52;100000.84;;;9.53;67.45
39491;BME280;25175;50.140;18.990;2022-11-11T17:16:12;99998.56;;;9.50;67.30
39491;BME280;25175;50.140;18.990;2022-11-11T17:19:34;99994.81;;;9.52;67.74
39491;BME280;25175;50.140;18.990;2022-11-11T17:22:56;100010.66;;;9.51;67.72
39491;BME280;25175;50.140;18.990;2022-11-11T17:26:16;100007.72;;;9.46;68.07
39491;BME280;25175;50.140;18.990;2022-11-11T17:29:37;100016.69;;;9.43;67.93
39491;BME280;25175;50.140;18.990;2022-11-11T17:32:57;100018.16;;;9.38;68.25
39491;BME280;25175;50.140;18.990;2022-11-11T17:36:19;100011.09;;;9.38;67.85
39491;BME280;25175;50.140;18.990;2022-11-11T17:39:39;100018.59;;;9.33;68.17
39491;BME280;25175;50.140;18.990;2022-11-11T17:43:02;100013.19;;;9.27;67.80
39491;BME280;25175;50.140;18.990;2022-11-11T17:46:22;100009.88;;;9.25;68.18
39491;BME280;25175;50.140;18.990;2022-11-11T17:49:43;100004.31;;;9.20;68.59
39491;BME280;25175;50.140;18.990;2022-11-11T17:53:05;100005.28;;;9.19;68.77
39491;BME280;25175;50.140;18.990;2022-11-11T17:56:26;100014.75;;;9.20;68.51
39491;BME280;25175;50.140;18.990;2022-11-11T17:59:46;100009.53;;;9.20;68.55
39491;BME280;25175;50.140;18.990;2022-11-11T18:03:07;100004.63;;;9.17;68.29
39491;BME280;25175;50.140;18.990;2022-11-11T18:06:27;100006.25;;;9.10;68.19
39491;BME280;25175;50.140;18.990;2022-11-11T18:09:49;100019.75;;;9.05;68.48